createdAt,value
2023-03-04T00:01:52.902Z,9.01
2023-03-04T00:04:20.042Z,9.31
2023-03-04T00:06:48.604Z,9.54
2023-03-04T00:09:16.061Z,9.74
2023-03-04T00:11:43.203Z,9.85
2023-03-04T00:14:11.248Z,10.17
2023-03-04T00:16:38.404Z,10.28
2023-03-04T00:19:06.049Z,9.22
2023-03-04T00:21:39.468Z,9.01
2023-03-04T00:24:07.076Z,9.17
2023-03-04T00:27:03.167Z,8.70
2023-03-04T00:29:30.327Z,9.88
2023-03-04T00:31:57.529Z,9.44
2023-03-04T00:34:32.399Z,9.82
2023-03-04T00:37:01.822Z,10.08
2023-03-04T00:39:28.916Z,10.10
2023-03-04T00:41:56.054Z,9.16
2023-03-04T00:44:22.687Z,9.65
2023-03-04T00:46:49.874Z,9.40
2023-03-04T00:49:19.104Z,10.16
2023-03-04T00:51:46.769Z,11.36
2023-03-04T00:54:13.641Z,9.86
2023-03-04T00:56:40.731Z,10.19
2023-03-04T00:59:07.757Z,10.76
2023-03-04T01:01:43.244Z,10.35
2023-03-04T01:04:10.602Z,10.33
2023-03-04T01:07:00.477Z,10.78
2023-03-04T01:09:27.668Z,10.24
2023-03-04T01:11:55.370Z,10.90
2023-03-04T01:14:22.652Z,10.59
2023-03-04T01:16:50.185Z,11.45
2023-03-04T01:19:17.674Z,10.79
2023-03-04T01:21:45.402Z,10.43
2023-03-04T01:24:12.620Z,11.09
2023-03-04T01:26:39.533Z,11.08
2023-03-04T01:29:21.136Z,10.50
2023-03-04T01:31:49.236Z,10.50
2023-03-04T01:34:18.025Z,11.05
2023-03-04T01:36:46.204Z,10.24
2023-03-04T01:39:15.246Z,9.92
2023-03-04T01:41:43.242Z,9.92
2023-03-04T01:44:11.705Z,10.11
2023-03-04T01:46:39.003Z,10.01
2023-03-04T01:49:07.444Z,10.69
2023-03-04T01:51:34.715Z,10.16
2023-03-04T01:54:01.736Z,9.72
2023-03-04T01:56:30.959Z,10.50
2023-03-04T01:59:10.144Z,10.47
2023-03-04T02:01:38.658Z,10.26
2023-03-04T02:04:12.866Z,10.88
2023-03-04T02:06:41.737Z,9.76
2023-03-04T02:09:09.138Z,9.89
2023-03-04T02:11:52.298Z,10.04
2023-03-04T02:14:19.965Z,9.53
2023-03-04T02:16:47.230Z,9.88
2023-03-04T02:19:21.175Z,10.32
2023-03-04T02:21:48.206Z,9.85
2023-03-04T02:24:31.421Z,9.99
2023-03-04T02:26:59.259Z,9.81
2023-03-04T02:29:28.695Z,9.59
2023-03-04T02:31:56.086Z,9.17
2023-03-04T02:34:46.187Z,9.80
2023-03-04T02:37:13.703Z,10.67
2023-03-04T02:39:44.244Z,10.35
2023-03-04T02:42:11.615Z,10.30
2023-03-04T02:44:40.375Z,9.95
2023-03-04T02:47:09.257Z,10.61
2023-03-04T02:49:37.949Z,9.44
2023-03-04T02:52:07.331Z,10.88
2023-03-04T02:54:34.713Z,10.29
2023-03-04T02:57:04.107Z,10.32
2023-03-04T02:59:31.318Z,10.04
2023-03-04T03:01:58.809Z,9.66
2023-03-04T03:04:26.399Z,9.25
2023-03-04T03:06:53.834Z,9.89
2023-03-04T03:09:21.415Z,10.18
2023-03-04T03:12:02.946Z,10.76
2023-03-04T03:14:30.060Z,10.02
2023-03-04T03:17:06.105Z,9.96
2023-03-04T03:19:32.823Z,9.96
2023-03-04T03:22:00.905Z,9.82
2023-03-04T03:24:27.916Z,9.42
2023-03-04T03:26:55.761Z,9.89
2023-03-04T03:29:22.839Z,9.23
2023-03-04T03:31:57.324Z,9.61
2023-03-04T03:34:24.771Z,9.81
2023-03-04T03:36:51.970Z,9.31
2023-03-04T03:39:27.436Z,9.82
2023-03-04T03:41:54.787Z,9.54
2023-03-04T03:44:45.865Z,10.74
2023-03-04T03:47:13.098Z,10.23
2023-03-04T03:49:47.623Z,10.13
2023-03-04T03:52:14.625Z,9.61
2023-03-04T03:54:48.575Z,10.51
2023-03-04T03:57:15.554Z,9.91
2023-03-04T03:59:42.804Z,9.45
2023-03-04T04:02:12.448Z,10.35
2023-03-04T04:04:39.473Z,10.31
2023-03-04T04:07:06.745Z,8.94
2023-03-04T04:09:34.267Z,9.77
2023-03-04T04:12:02.972Z,10.35
2023-03-04T04:14:30.189Z,10.83
2023-03-04T04:16:57.273Z,10.57
2023-03-04T04:19:24.644Z,10.26
2023-03-04T04:21:52.917Z,10.30
2023-03-04T04:24:20.268Z,10.57
2023-03-04T04:26:47.741Z,9.66
2023-03-04T04:29:16.280Z,10.08
2023-03-04T04:31:43.355Z,10.22
2023-03-04T04:34:10.668Z,9.85
2023-03-04T04:36:40.436Z,10.92
2023-03-04T04:39:08.143Z,10.96
2023-03-04T04:41:41.788Z,10.30
2023-03-04T04:44:09.310Z,10.00
2023-03-04T04:46:54.849Z,10.56
2023-03-04T04:49:22.186Z,10.69
2023-03-04T04:51:49.421Z,10.11
2023-03-04T04:54:18.395Z,10.38
2023-03-04T04:56:45.517Z,10.25
2023-03-04T04:59:13.701Z,9.60
2023-03-04T05:01:41.551Z,9.26
2023-03-04T05:04:08.730Z,9.05
2023-03-04T05:06:35.787Z,9.72
2023-03-04T05:09:03.245Z,9.37
2023-03-04T05:11:31.485Z,9.36
2023-03-04T05:14:00.195Z,9.05
2023-03-04T05:16:27.001Z,8.50
2023-03-04T05:18:54.008Z,9.10
2023-03-04T05:21:21.091Z,8.96
2023-03-04T05:23:48.058Z,9.27
2023-03-04T05:26:16.838Z,9.34
2023-03-04T05:28:51.277Z,8.82
2023-03-04T05:31:19.324Z,8.49
2023-03-04T05:33:47.773Z,8.57
2023-03-04T05:36:17.302Z,8.51
2023-03-04T05:38:44.863Z,9.38
2023-03-04T05:41:14.624Z,9.18
2023-03-04T05:43:43.032Z,8.83
2023-03-04T05:46:13.917Z,8.98
2023-03-04T05:48:42.456Z,8.81
2023-03-04T05:51:12.324Z,8.61
2023-03-04T05:53:40.943Z,8.17
2023-03-04T05:56:09.491Z,8.21
2023-03-04T05:58:38.934Z,8.61
2023-03-04T06:01:07.754Z,8.61
2023-03-04T06:03:36.598Z,9.25
2023-03-04T06:06:03.852Z,8.58
2023-03-04T06:08:31.042Z,9.42
2023-03-04T06:10:59.310Z,9.29
2023-03-04T06:13:26.661Z,9.01
2023-03-04T06:15:57.067Z,8.97
2023-03-04T06:18:25.370Z,8.87
2023-03-04T06:21:03.489Z,9.08
2023-03-04T06:23:30.526Z,9.27
2023-03-04T06:26:01.216Z,8.38
2023-03-04T06:28:28.320Z,8.78
2023-03-04T06:30:56.400Z,8.83
2023-03-04T06:33:24.133Z,8.64
2023-03-04T06:35:54.705Z,8.46
2023-03-04T06:38:29.819Z,9.17
2023-03-04T06:40:57.653Z,9.42
2023-03-04T06:43:27.520Z,8.47
2023-03-04T06:45:55.079Z,9.02
2023-03-04T06:48:30.645Z,8.24
2023-03-04T06:50:58.124Z,8.85
2023-03-04T06:53:25.136Z,8.23
2023-03-04T06:55:52.118Z,9.02
2023-03-04T06:58:33.880Z,9.19
2023-03-04T07:01:13.394Z,8.48
2023-03-04T07:03:41.862Z,8.68
2023-03-04T07:06:10.637Z,9.80
2023-03-04T07:08:37.608Z,9.77
2023-03-04T07:11:04.743Z,9.89
2023-03-04T07:13:32.068Z,10.32
2023-03-04T07:16:00.588Z,10.50
2023-03-04T07:18:34.609Z,9.64
2023-03-04T07:21:01.314Z,9.58
2023-03-04T07:23:28.692Z,8.52
2023-03-04T07:26:03.454Z,9.22
2023-03-04T07:28:30.498Z,9.03
2023-03-04T07:31:08.398Z,9.11
2023-03-04T07:33:35.343Z,8.49
2023-03-04T07:36:03.360Z,9.11
2023-03-04T07:38:30.445Z,9.06
2023-03-04T07:40:58.213Z,8.98
2023-03-04T07:43:29.658Z,8.62
2023-03-04T07:46:01.155Z,8.86
2023-03-04T07:48:30.011Z,9.16
2023-03-04T07:51:10.851Z,8.45
2023-03-04T07:53:38.440Z,8.90
2023-03-04T07:56:06.860Z,9.91
2023-03-04T07:58:34.344Z,8.87
2023-03-04T08:01:02.885Z,8.93
2023-03-04T08:03:32.601Z,8.95
2023-03-04T08:06:00.732Z,9.31
2023-03-04T08:08:29.520Z,9.47
2023-03-04T08:10:56.814Z,10.12
2023-03-04T08:13:25.981Z,9.70
2023-03-04T08:15:55.974Z,8.99
2023-03-04T08:18:22.959Z,9.79
2023-03-04T08:20:50.357Z,9.48
2023-03-04T08:23:32.952Z,9.29
2023-03-04T08:25:59.942Z,9.26
2023-03-04T08:28:27.444Z,8.79
2023-03-04T08:30:54.831Z,9.12
2023-03-04T08:33:21.558Z,9.23
2023-03-04T08:35:49.081Z,9.34
2023-03-04T08:38:16.167Z,9.13
2023-03-04T08:40:43.531Z,9.22
2023-03-04T08:43:10.743Z,9.53
2023-03-04T08:45:37.960Z,9.40
2023-03-04T08:48:05.158Z,8.88
2023-03-04T08:50:32.986Z,9.27
2023-03-04T08:53:00.129Z,8.32
2023-03-04T08:55:50.896Z,8.51
2023-03-04T08:58:18.455Z,8.80
2023-03-04T09:00:48.969Z,9.15
2023-03-04T09:03:17.366Z,9.48
2023-03-04T09:05:45.483Z,9.74
2023-03-04T09:08:12.421Z,9.30
2023-03-04T09:10:40.704Z,8.41
2023-03-04T09:13:11.377Z,8.63
2023-03-04T09:15:40.322Z,8.59
2023-03-04T09:18:07.869Z,8.46
2023-03-04T09:20:35.383Z,9.12
2023-03-04T09:23:02.580Z,9.68
2023-03-04T09:25:36.963Z,9.45
2023-03-04T09:28:05.172Z,8.84
2023-03-04T09:30:35.090Z,9.87
2023-03-04T09:33:02.633Z,9.75
2023-03-04T09:35:37.717Z,8.83
2023-03-04T09:38:04.807Z,9.14
2023-03-04T09:40:38.545Z,8.75
2023-03-04T09:43:08.135Z,8.96
2023-03-04T09:45:49.540Z,9.20
2023-03-04T09:48:19.349Z,8.40
2023-03-04T09:51:04.949Z,8.92
2023-03-04T09:53:40.845Z,8.60
2023-03-04T09:56:07.931Z,8.76
2023-03-04T09:58:38.254Z,9.61
2023-03-04T10:01:05.539Z,9.55
2023-03-04T10:03:51.474Z,8.95
2023-03-04T10:06:20.148Z,9.45
2023-03-04T10:08:46.928Z,8.59
2023-03-04T10:11:15.972Z,9.10
2023-03-04T10:14:02.656Z,10.26
2023-03-04T10:16:52.945Z,10.48
2023-03-04T10:19:26.434Z,9.42
2023-03-04T10:21:53.061Z,9.82
2023-03-04T10:24:29.145Z,9.35
2023-03-04T10:26:58.697Z,9.77
2023-03-04T10:29:34.276Z,9.52
2023-03-04T10:32:01.433Z,9.18
2023-03-04T10:34:29.896Z,8.99
2023-03-04T10:37:07.245Z,9.07
2023-03-04T10:39:36.450Z,8.85
2023-03-04T10:42:08.101Z,10.28
2023-03-04T10:44:35.530Z,9.79
2023-03-04T10:47:02.634Z,9.50
2023-03-04T10:49:31.263Z,9.79
2023-03-04T10:52:18.641Z,9.88
2023-03-04T10:54:52.982Z,9.09
2023-03-04T10:57:22.760Z,9.09
2023-03-04T10:59:55.971Z,9.33
2023-03-04T11:02:27.557Z,9.85
2023-03-04T11:05:05.092Z,10.04
2023-03-04T11:07:38.074Z,9.52
2023-03-04T11:10:21.069Z,10.67
2023-03-04T11:12:51.119Z,10.16
2023-03-04T11:15:23.221Z,10.90
2023-03-04T11:17:53.164Z,11.30
2023-03-04T11:20:40.720Z,10.20
2023-03-04T11:23:17.853Z,10.43
2023-03-04T11:25:49.442Z,10.38
2023-03-04T11:28:24.286Z,10.74
2023-03-04T11:31:14.906Z,10.63
2023-03-04T11:33:52.864Z,9.50
2023-03-04T11:36:26.222Z,9.94
2023-03-04T11:38:54.345Z,9.62
2023-03-04T11:41:54.227Z,10.70
2023-03-04T11:44:21.265Z,10.52
2023-03-04T11:46:57.199Z,10.99
2023-03-04T11:49:31.722Z,10.82
2023-03-04T11:52:06.920Z,11.23
2023-03-04T11:54:37.019Z,10.97
2023-03-04T11:57:09.692Z,10.61
2023-03-04T11:59:38.084Z,10.93
2023-03-04T12:02:05.362Z,9.51
2023-03-04T12:04:41.546Z,10.63
2023-03-04T12:07:28.032Z,10.62
2023-03-04T12:10:07.197Z,10.07
2023-03-04T12:12:54.021Z,9.97
2023-03-04T12:15:42.953Z,9.93
2023-03-04T12:18:19.332Z,10.32
2023-03-04T12:20:50.981Z,10.29
2023-03-04T12:23:30.211Z,10.79
2023-03-04T12:25:57.016Z,10.84
2023-03-04T12:28:32.541Z,10.80
2023-03-04T12:31:04.601Z,10.87
2023-03-04T12:33:56.517Z,10.34
2023-03-04T12:36:42.126Z,10.61
2023-03-04T12:39:27.507Z,10.63
2023-03-04T12:41:57.090Z,11.31
2023-03-04T12:44:24.099Z,10.90
2023-03-04T12:47:12.468Z,10.47
2023-03-04T12:49:42.334Z,10.71
2023-03-04T12:52:24.612Z,10.40
2023-03-04T12:54:58.273Z,10.45
2023-03-04T12:57:26.245Z,10.54
2023-03-04T13:00:13.032Z,11.35
2023-03-04T13:02:59.512Z,9.56
2023-03-04T13:05:44.996Z,10.83
2023-03-04T13:08:17.410Z,10.49
2023-03-04T13:10:44.107Z,11.26
2023-03-04T13:13:33.942Z,10.77
2023-03-04T13:16:29.603Z,10.96
2023-03-04T13:18:56.831Z,11.57
2023-03-04T13:21:32.507Z,11.88
2023-03-04T13:24:02.800Z,10.85
2023-03-04T13:26:34.075Z,10.16
2023-03-04T13:29:19.786Z,11.31
2023-03-04T13:32:10.073Z,10.61
2023-03-04T13:34:47.623Z,10.69
2023-03-04T13:37:33.884Z,11.17
2023-03-04T13:40:20.579Z,10.77
2023-03-04T13:42:49.184Z,11.82
2023-03-04T13:45:40.246Z,11.46
2023-03-04T13:48:24.090Z,11.35
2023-03-04T13:50:52.185Z,10.86
2023-03-04T13:53:25.583Z,11.17
2023-03-04T13:56:05.053Z,10.18
2023-03-04T13:58:40.582Z,10.03
2023-03-04T14:01:22.589Z,11.20
2023-03-04T14:03:50.012Z,10.81
2023-03-04T14:06:39.069Z,11.76
2023-03-04T14:09:13.258Z,11.26
2023-03-04T14:11:44.574Z,11.07
2023-03-04T14:14:20.954Z,11.15
2023-03-04T14:16:49.034Z,11.42
2023-03-04T14:19:38.467Z,11.18
2023-03-04T14:22:21.073Z,11.43
2023-03-04T14:25:08.086Z,11.95
2023-03-04T14:27:36.593Z,12.03
2023-03-04T14:30:06.048Z,12.44
2023-03-04T14:32:33.183Z,11.06
2023-03-04T14:35:04.982Z,10.68
2023-03-04T14:37:38.078Z,10.82
2023-03-04T14:40:06.038Z,9.75
2023-03-04T14:42:37.499Z,10.10
2023-03-04T14:45:05.049Z,11.21
2023-03-04T14:47:32.307Z,10.74
2023-03-04T14:49:59.870Z,11.36
2023-03-04T14:52:31.062Z,10.73
2023-03-04T14:55:22.770Z,11.03
2023-03-04T14:57:53.868Z,11.39
2023-03-04T15:00:21.113Z,11.39
2023-03-04T15:02:54.759Z,11.79
2023-03-04T15:05:27.897Z,13.10
2023-03-04T15:08:02.041Z,12.28
2023-03-04T15:10:31.195Z,13.26
2023-03-04T15:13:01.535Z,12.18
2023-03-04T15:16:06.641Z,12.58
2023-03-04T15:18:33.778Z,11.81
2023-03-04T15:21:03.347Z,11.51
2023-03-04T15:23:31.973Z,11.35
2023-03-04T15:26:05.962Z,11.60
2023-03-04T15:28:35.661Z,11.04
2023-03-04T15:31:22.922Z,10.37
2023-03-04T15:33:49.824Z,11.05
2023-03-04T15:36:18.655Z,10.84
2023-03-04T15:38:48.010Z,11.33
2023-03-04T15:41:17.775Z,11.06
2023-03-04T15:43:51.109Z,10.96
2023-03-04T15:46:18.419Z,11.70
2023-03-04T15:48:45.851Z,12.09
2023-03-04T15:51:18.231Z,10.69
2023-03-04T15:53:48.486Z,10.48
2023-03-04T15:56:18.061Z,11.13
2023-03-04T15:58:48.725Z,11.08
2023-03-04T16:01:16.729Z,10.83
2023-03-04T16:03:44.003Z,10.70
2023-03-04T16:06:20.822Z,11.31
2023-03-04T16:08:50.229Z,10.31
2023-03-04T16:11:27.250Z,11.80
2023-03-04T16:13:54.529Z,11.43
2023-03-04T16:16:22.103Z,9.77
2023-03-04T16:18:49.401Z,10.26
2023-03-04T16:21:18.927Z,11.31
2023-03-04T16:23:47.243Z,11.19
2023-03-04T16:26:19.189Z,10.75
2023-03-04T16:28:47.594Z,10.47
2023-03-04T16:31:15.361Z,11.48
2023-03-04T16:33:43.357Z,11.85
2023-03-04T16:36:19.624Z,9.38
2023-03-04T16:38:47.232Z,10.57
2023-03-04T16:41:15.864Z,9.77
2023-03-04T16:43:43.854Z,9.84
2023-03-04T16:46:23.092Z,9.97
2023-03-04T16:48:50.321Z,10.27
2023-03-04T16:51:19.641Z,10.54
2023-03-04T16:53:55.261Z,10.62
2023-03-04T16:56:22.816Z,10.43
2023-03-04T16:58:50.170Z,9.89
2023-03-04T17:01:18.548Z,8.87
2023-03-04T17:03:45.678Z,9.45
2023-03-04T17:06:13.424Z,8.89
2023-03-04T17:08:40.876Z,9.47
2023-03-04T17:11:08.087Z,8.91
2023-03-04T17:13:37.358Z,8.70
2023-03-04T17:16:04.822Z,8.70
2023-03-04T17:18:34.116Z,8.51
2023-03-04T17:21:05.445Z,9.07
2023-03-04T17:23:43.316Z,8.82
2023-03-04T17:26:11.046Z,9.00
2023-03-04T17:28:38.657Z,8.57
2023-03-04T17:31:10.112Z,8.99
2023-03-04T17:33:45.164Z,9.04
2023-03-04T17:36:12.964Z,9.02
2023-03-04T17:38:40.302Z,8.28
2023-03-04T17:41:09.186Z,8.53
2023-03-04T17:43:36.798Z,9.62
2023-03-04T17:46:08.119Z,7.89
2023-03-04T17:48:35.818Z,8.87
2023-03-04T17:51:08.414Z,9.29
2023-03-04T17:53:35.665Z,8.55
2023-03-04T17:56:12.682Z,8.65
2023-03-04T17:58:39.683Z,9.54
2023-03-04T18:01:12.391Z,9.09
2023-03-04T18:03:39.801Z,9.75
2023-03-04T18:06:06.759Z,8.48
2023-03-04T18:08:34.547Z,8.21
2023-03-04T18:11:05.059Z,9.29
2023-03-04T18:13:34.433Z,8.89
2023-03-04T18:16:01.621Z,9.23
2023-03-04T18:18:29.377Z,8.55
2023-03-04T18:21:00.151Z,9.01
2023-03-04T18:23:27.616Z,8.87
2023-03-04T18:25:54.465Z,8.91
2023-03-04T18:28:21.194Z,8.81
2023-03-04T18:30:50.314Z,8.33
2023-03-04T18:33:17.288Z,7.74
2023-03-04T18:35:43.882Z,7.63
2023-03-04T18:38:10.635Z,8.41
2023-03-04T18:40:40.709Z,8.31
2023-03-04T18:43:07.544Z,8.32
2023-03-04T18:45:34.216Z,7.99
2023-03-04T18:48:00.778Z,8.01
2023-03-04T18:50:27.209Z,8.26
2023-03-04T18:52:54.685Z,8.65
2023-03-04T18:55:21.635Z,8.38
2023-03-04T18:57:50.647Z,8.73
2023-03-04T19:00:18.622Z,8.31
2023-03-04T19:02:54.759Z,7.90
2023-03-04T19:05:22.441Z,7.80
2023-03-04T19:07:49.234Z,7.79
2023-03-04T19:10:16.219Z,7.38
2023-03-04T19:12:42.926Z,7.16
2023-03-04T19:15:10.381Z,7.37
2023-03-04T19:17:37.504Z,7.14
2023-03-04T19:20:05.208Z,7.06
2023-03-04T19:22:31.697Z,7.59
2023-03-04T19:24:58.292Z,7.64
2023-03-04T19:27:25.181Z,8.00
2023-03-04T19:29:51.852Z,6.92
2023-03-04T19:32:19.231Z,6.58
2023-03-04T19:34:48.426Z,7.00
2023-03-04T19:37:15.577Z,6.89
2023-03-04T19:39:45.006Z,6.32
2023-03-04T19:42:13.758Z,7.08
2023-03-04T19:44:41.670Z,7.18
2023-03-04T19:47:09.521Z,7.47
2023-03-04T19:49:41.176Z,7.06
2023-03-04T19:52:07.860Z,6.91
2023-03-04T19:54:34.300Z,7.37
2023-03-04T19:57:02.084Z,7.33
2023-03-04T19:59:29.235Z,6.80
2023-03-04T20:01:56.046Z,6.97
2023-03-04T20:04:23.578Z,7.52
2023-03-04T20:06:51.167Z,6.95
2023-03-04T20:09:18.855Z,7.19
2023-03-04T20:11:57.597Z,6.92
2023-03-04T20:14:26.760Z,6.68
2023-03-04T20:16:53.311Z,7.49
2023-03-04T20:19:19.896Z,7.68
2023-03-04T20:21:46.303Z,8.04
2023-03-04T20:24:13.106Z,7.61
2023-03-04T20:26:39.812Z,7.20
2023-03-04T20:29:06.740Z,7.83
2023-03-04T20:31:38.156Z,7.87
2023-03-04T20:34:05.828Z,8.13
2023-03-04T20:36:32.623Z,7.53
2023-03-04T20:39:05.391Z,6.67
2023-03-04T20:41:37.759Z,7.56
2023-03-04T20:44:06.182Z,6.71
2023-03-04T20:46:44.991Z,6.85
2023-03-04T20:49:16.270Z,6.99
2023-03-04T20:51:43.071Z,6.95
2023-03-04T20:54:11.738Z,7.91
2023-03-04T20:56:38.508Z,7.00
2023-03-04T20:59:06.750Z,7.10
2023-03-04T21:01:33.333Z,7.54
2023-03-04T21:04:00.397Z,7.33
2023-03-04T21:06:29.340Z,8.36
2023-03-04T21:08:58.031Z,7.70
2023-03-04T21:11:24.837Z,8.23
2023-03-04T21:13:56.350Z,9.10
2023-03-04T21:16:24.345Z,9.60
2023-03-04T21:18:51.366Z,8.78
2023-03-04T21:21:22.639Z,8.43
2023-03-04T21:23:49.862Z,8.54
2023-03-04T21:26:17.335Z,8.21
2023-03-04T21:28:43.914Z,8.92
2023-03-04T21:31:15.338Z,10.02
2023-03-04T21:33:41.849Z,9.16
2023-03-04T21:36:09.309Z,9.49
2023-03-04T21:38:37.904Z,9.74
2023-03-04T21:41:05.298Z,8.81
2023-03-04T21:43:31.918Z,8.37
2023-03-04T21:45:58.854Z,8.91
2023-03-04T21:48:25.846Z,9.41
2023-03-04T21:50:54.199Z,9.33
2023-03-04T21:53:23.578Z,8.55
2023-03-04T21:55:51.013Z,8.64
2023-03-04T21:58:18.490Z,8.76
2023-03-04T22:00:45.014Z,8.18
2023-03-04T22:03:11.543Z,8.45
2023-03-04T22:05:44.779Z,8.45
2023-03-04T22:08:12.690Z,8.03
2023-03-04T22:10:40.488Z,8.04
2023-03-04T22:13:11.736Z,8.31
2023-03-04T22:15:39.722Z,8.12
2023-03-04T22:18:07.007Z,9.24
2023-03-04T22:20:34.887Z,8.61
2023-03-04T22:23:02.044Z,9.19
2023-03-04T22:25:28.794Z,8.22
2023-03-04T22:27:55.421Z,8.26
2023-03-04T22:30:22.389Z,8.50
2023-03-04T22:32:48.970Z,8.57
2023-03-04T22:35:16.331Z,7.50
2023-03-04T22:37:44.173Z,7.35
2023-03-04T22:40:15.042Z,7.55
2023-03-04T22:42:42.758Z,7.11
2023-03-04T22:45:10.396Z,8.21
2023-03-04T22:47:37.743Z,8.70
2023-03-04T22:50:04.562Z,7.70
2023-03-04T22:52:31.186Z,7.39
2023-03-04T22:54:57.954Z,7.45
2023-03-04T22:57:25.835Z,6.90
2023-03-04T22:59:52.551Z,8.12
2023-03-04T23:02:19.597Z,8.03
2023-03-04T23:04:46.445Z,8.52
2023-03-04T23:07:13.140Z,8.63
2023-03-04T23:09:39.862Z,7.75
2023-03-04T23:12:06.722Z,8.34
2023-03-04T23:14:33.474Z,8.33
2023-03-04T23:16:59.977Z,8.01
2023-03-04T23:19:26.553Z,8.84
2023-03-04T23:21:53.021Z,9.13
2023-03-04T23:24:20.082Z,8.63
2023-03-04T23:26:46.841Z,9.02
2023-03-04T23:29:14.438Z,8.75
2023-03-04T23:31:40.994Z,7.50
2023-03-04T23:34:07.735Z,8.70
2023-03-04T23:36:35.940Z,7.96
2023-03-04T23:39:03.540Z,7.27
2023-03-04T23:41:30.786Z,7.44
2023-03-04T23:43:58.471Z,7.64
2023-03-04T23:46:25.469Z,7.16
2023-03-04T23:48:52.470Z,8.75
2023-03-04T23:51:20.964Z,7.96
2023-03-04T23:53:47.906Z,8.60
2023-03-04T23:56:18.973Z,8.54
2023-03-04T23:58:45.905Z,8.99
